Aviation Digital Data Service (ADDS)

Output produced by METARs form (0015 UTC 02 September 2015)
found at http://aviationweather.gov/adds/metars/
 
KEKN 012320Z 0200/0224 VRB04KT P6SM SCT045 
     FM020600 00000KT 3SM BR SCT045 
     FM020900 00000KT 2SM BR FEW001 SCT045 
     FM021000 00000KT 1/4SM FG BKN001 
     FM021200 00000KT 3SM BR SCT001 
     FM021300 00000KT P6SM SCT045 
     FM021600 32004KT P6SM VCTS BKN045CB